Time;durP1;ratioP1;P1;durP2;ratioP2;P2;SDS_P1;SDS_P2;PMS_P1;PMS_P2;Temp;Humidity;BMP_temperature;BMP_pressure;BME280_temperature;BME280_humidity;BME280_pressure;Samples;Min_cycle;Max_cycle;Signal;HPM_P1;HPM_P2
2023/06/29 00:01:42;;;;;;;7.97;3.05;;;19.70;99.90;;;;;;5013035;28;20030;-52
2023/06/29 00:04:08;;;;;;;7.68;3.22;;;19.80;99.90;;;;;;5012963;28;20040;-54
2023/06/29 00:06:36;;;;;;;6.25;3.00;;;19.70;99.90;;;;;;5013214;28;20034;-54
2023/06/29 00:09:03;;;;;;;9.45;3.60;;;19.80;99.90;;;;;;5012987;28;20044;-52
2023/06/29 00:11:29;;;;;;;6.25;2.92;;;19.70;99.90;;;;;;5012977;28;20075;-54
2023/06/29 00:13:55;;;;;;;6.07;2.90;;;19.70;99.90;;;;;;5012644;28;20121;-54
2023/06/29 00:16:22;;;;;;;6.45;3.08;;;19.70;99.90;;;;;;5012959;28;20173;-54
2023/06/29 00:18:49;;;;;;;5.45;2.95;;;19.70;99.90;;;;;;5012813;28;20038;-54
2023/06/29 00:21:16;;;;;;;5.85;3.13;;;19.70;99.90;;;;;;5012741;28;20083;-51
2023/06/29 00:23:42;;;;;;;6.22;3.03;;;19.60;99.90;;;;;;5012217;28;20125;-52
2023/06/29 00:26:07;;;;;;;5.10;2.60;;;19.60;99.90;;;;;;5012592;28;20112;-52
2023/06/29 00:28:33;;;;;;;5.60;2.53;;;19.50;99.90;;;;;;5012752;28;20030;-53
2023/06/29 00:30:59;;;;;;;7.43;3.30;;;19.40;99.90;;;;;;4994844;28;20037;-53
2023/06/29 00:33:27;;;;;;;6.57;3.08;;;19.40;99.90;;;;;;4994241;28;20125;-53
2023/06/29 00:35:52;;;;;;;9.35;3.03;;;19.40;99.90;;;;;;5012393;28;20100;-52
2023/06/29 00:38:18;;;;;;;6.20;3.10;;;19.50;99.90;;;;;;4994674;28;20034;-53
2023/06/29 00:40:43;;;;;;;6.78;3.28;;;19.50;99.90;;;;;;5012307;28;20032;-52
2023/06/29 00:43:09;;;;;;;5.80;3.00;;;19.50;99.90;;;;;;4994217;28;20164;-53
2023/06/29 00:45:36;;;;;;;5.30;2.63;;;19.50;99.90;;;;;;5012286;28;20405;-50
2023/06/29 00:48:04;;;;;;;6.33;3.07;;;19.40;99.90;;;;;;4994524;28;20026;-54
2023/06/29 00:50:34;;;;;;;7.97;3.33;;;19.40;99.90;;;;;;5012107;28;20036;-54
2023/06/29 00:53:00;;;;;;;6.18;3.17;;;19.30;99.90;;;;;;5011597;28;20137;-53
2023/06/29 00:55:27;;;;;;;7.05;2.95;;;19.30;99.90;;;;;;4994385;28;20117;-54
2023/06/29 00:57:52;;;;;;;7.63;3.30;;;19.30;99.90;;;;;;5011985;28;20508;-54
2023/06/29 01:00:18;;;;;;;7.57;3.50;;;19.30;99.90;;;;;;5012029;28;20041;-54
2023/06/29 01:02:44;;;;;;;5.30;3.45;;;19.30;99.90;;;;;;4993612;28;20045;-50
2023/06/29 01:05:13;;;;;;;7.00;3.20;;;19.30;99.90;;;;;;4994090;28;20025;-49
2023/06/29 01:07:58;;;;;;;7.40;3.65;;;19.40;99.90;;;;;;5011790;28;20045;-51
2023/06/29 01:10:27;;;;;;;8.25;3.92;;;19.50;99.90;;;;;;4994247;28;20029;-51
2023/06/29 01:12:53;;;;;;;8.65;3.70;;;19.50;99.90;;;;;;5011233;28;20029;-50
2023/06/29 01:15:21;;;;;;;8.73;3.63;;;19.50;99.90;;;;;;5011670;28;20487;-51
2023/06/29 01:17:50;;;;;;;6.85;3.38;;;19.40;99.90;;;;;;4993728;28;20310;-50
2023/06/29 01:20:16;;;;;;;6.35;3.15;;;19.40;99.90;;;;;;5011632;28;20050;-54
2023/06/29 01:22:55;;;;;;;7.80;3.40;;;19.40;99.90;;;;;;5010765;28;20087;-53
2023/06/29 01:25:21;;;;;;;;;;;19.40;99.90;;;;;;4994353;28;20045;-50
2023/06/29 01:27:49;;;;;;;6.13;3.10;;;19.30;99.90;;;;;;5011829;28;19949;-55
2023/06/29 01:30:14;;;;;;;6.82;2.95;;;19.30;99.90;;;;;;5011640;28;20072;-52
2023/06/29 01:32:40;;;;;;;6.38;3.35;;;19.30;99.90;;;;;;5011121;28;20037;-54
2023/06/29 01:35:08;;;;;;;8.05;3.40;;;19.30;99.90;;;;;;5011864;28;20041;-50
2023/06/29 01:37:45;;;;;;;8.65;3.67;;;19.30;99.90;;;;;;4994292;28;20036;-49
2023/06/29 01:40:17;;;;;;;5.95;3.38;;;19.20;99.90;;;;;;5012455;28;20030;-49
2023/06/29 01:42:43;;;;;;;5.47;3.05;;;19.20;99.90;;;;;;4997477;28;20034;-49
2023/06/29 01:45:10;;;;;;;7.15;3.35;;;19.20;99.90;;;;;;5015834;28;20033;-49
2023/06/29 01:47:36;;;;;;;7.25;3.70;;;19.30;99.90;;;;;;4998368;28;20034;-50
2023/06/29 01:50:03;;;;;;;7.05;3.70;;;19.40;99.90;;;;;;4997483;28;20025;-52
2023/06/29 01:52:29;;;;;;;7.22;3.25;;;19.40;99.90;;;;;;5010823;28;20026;-53
2023/06/29 01:54:54;;;;;;;6.18;3.60;;;19.40;99.90;;;;;;5011139;28;20030;-54
2023/06/29 01:57:20;;;;;;;9.25;3.47;;;19.40;99.90;;;;;;5011000;28;20104;-53
2023/06/29 01:59:46;;;;;;;8.38;3.40;;;19.50;99.90;;;;;;4993459;28;20136;-53
2023/06/29 02:02:12;;;;;;;9.45;3.55;;;19.50;99.90;;;;;;4993079;28;20038;-54
2023/06/29 02:04:37;;;;;;;7.00;3.38;;;19.50;99.90;;;;;;4993319;28;20033;-54
2023/06/29 02:07:03;;;;;;;8.68;3.50;;;19.50;99.90;;;;;;5011088;28;20510;-52
2023/06/29 02:09:29;;;;;;;11.13;3.95;;;19.40;99.90;;;;;;5010866;28;20030;-55
2023/06/29 02:11:56;;;;;;;9.90;3.90;;;19.60;99.90;;;;;;4992930;28;20026;-53
2023/06/29 02:14:23;;;;;;;10.73;4.18;;;19.60;99.90;;;;;;4993146;28;20113;-54
2023/06/29 02:16:51;;;;;;;8.13;3.88;;;19.60;99.90;;;;;;4993072;28;20124;-54
2023/06/29 02:19:17;;;;;;;8.15;3.55;;;19.60;99.90;;;;;;4993282;28;20038;-54
2023/06/29 02:21:43;;;;;;;7.05;3.72;;;19.50;99.90;;;;;;5010649;28;20034;-54
2023/06/29 02:24:10;;;;;;;6.28;3.80;;;19.50;99.90;;;;;;4992827;28;20077;-52
2023/06/29 02:26:35;;;;;;;8.25;3.50;;;19.50;99.90;;;;;;5011215;28;20064;-54
2023/06/29 02:29:03;;;;;;;7.53;3.63;;;19.50;99.90;;;;;;5010899;28;20037;-54
2023/06/29 02:31:29;;;;;;;7.85;3.72;;;19.40;99.90;;;;;;4992846;28;20030;-54
2023/06/29 02:33:56;;;;;;;9.30;3.75;;;19.40;99.90;;;;;;4994771;28;20034;-52
2023/06/29 02:36:22;;;;;;;8.23;3.70;;;19.40;99.90;;;;;;4997128;28;20029;-55
2023/06/29 02:38:49;;;;;;;6.72;3.22;;;19.40;99.90;;;;;;5014583;28;20410;-51
2023/06/29 02:41:14;;;;;;;6.47;3.30;;;19.40;99.90;;;;;;4997024;28;20037;-54
2023/06/29 02:43:40;;;;;;;7.13;3.28;;;19.40;99.90;;;;;;5014522;28;20022;-54
2023/06/29 02:46:06;;;;;;;7.78;3.80;;;19.30;99.90;;;;;;5014659;28;20113;-54
2023/06/29 02:48:34;;;;;;;7.95;3.85;;;19.30;99.90;;;;;;4997146;28;20102;-52
2023/06/29 02:50:59;;;;;;;8.32;3.30;;;19.30;99.90;;;;;;4997127;28;20529;-54
2023/06/29 02:53:26;;;;;;;9.75;4.05;;;19.30;99.90;;;;;;4996406;28;20033;-52
2023/06/29 02:55:51;;;;;;;7.22;3.40;;;19.30;99.90;;;;;;5014463;28;20601;-52
2023/06/29 02:58:17;;;;;;;7.25;3.50;;;19.20;99.90;;;;;;4996831;28;20068;-54
2023/06/29 03:00:43;;;;;;;7.10;3.30;;;19.20;99.90;;;;;;4996646;28;20030;-55
2023/06/29 03:03:09;;;;;;;8.90;3.67;;;19.20;99.90;;;;;;4996137;28;20048;-54
2023/06/29 03:05:35;;;;;;;7.60;3.75;;;19.20;99.90;;;;;;5014226;28;20466;-55
2023/06/29 03:08:02;;;;;;;7.15;3.58;;;19.30;99.90;;;;;;5014077;28;20088;-53
2023/06/29 03:10:28;;;;;;;6.75;3.42;;;19.20;99.90;;;;;;5014173;28;20616;-55
2023/06/29 03:12:54;;;;;;;7.78;3.58;;;19.20;99.90;;;;;;5013602;28;20274;-55
2023/06/29 03:15:19;;;;;;;7.68;4.10;;;19.30;99.90;;;;;;5013900;28;20048;-55
2023/06/29 03:17:45;;;;;;;7.68;3.58;;;19.30;99.90;;;;;;5013804;28;20052;-54
2023/06/29 03:20:13;;;;;;;12.57;4.00;;;19.30;99.90;;;;;;5013852;28;20053;-55
2023/06/29 03:22:39;;;;;;;8.13;3.50;;;19.30;99.90;;;;;;5013362;28;20041;-55
2023/06/29 03:25:06;;;;;;;7.00;3.65;;;19.30;99.90;;;;;;5013660;28;20064;-55
2023/06/29 03:27:31;;;;;;;9.05;3.90;;;19.30;99.90;;;;;;5013699;28;20058;-55
2023/06/29 03:29:57;;;;;;;6.78;3.53;;;19.20;99.90;;;;;;5013437;28;20525;-55
2023/06/29 03:32:23;;;;;;;5.90;3.40;;;19.20;99.90;;;;;;4995842;28;20390;-54
2023/06/29 03:34:48;;;;;;;6.78;3.35;;;19.30;99.90;;;;;;5013533;28;20030;-55
2023/06/29 03:37:14;;;;;;;9.13;3.97;;;19.30;99.90;;;;;;5013439;28;20117;-52
2023/06/29 03:39:40;;;;;;;7.93;3.67;;;19.30;99.90;;;;;;5013559;28;20037;-55
2023/06/29 03:42:06;;;;;;;6.22;3.35;;;19.30;99.90;;;;;;4995374;28;20547;-54
2023/06/29 03:44:31;;;;;;;8.35;4.13;;;19.30;99.90;;;;;;5013243;28;20037;-54
2023/06/29 03:46:57;;;;;;;6.95;3.00;;;19.30;99.90;;;;;;5013479;28;20033;-53
2023/06/29 03:49:22;;;;;;;7.95;3.67;;;19.20;99.90;;;;;;5013184;28;20052;-54
2023/06/29 03:51:48;;;;;;;5.95;3.28;;;19.30;99.90;;;;;;5013036;28;20022;-54
2023/06/29 03:54:14;;;;;;;6.85;3.47;;;19.30;99.90;;;;;;5012979;28;20099;-53
2023/06/29 03:56:39;;;;;;;8.80;3.40;;;19.30;99.90;;;;;;5013223;28;20032;-54
2023/06/29 03:59:05;;;;;;;7.03;3.00;;;19.40;99.90;;;;;;4995472;28;20042;-55
2023/06/29 04:01:30;;;;;;;10.10;3.65;;;19.30;99.90;;;;;;5012972;28;20033;-52
2023/06/29 04:03:56;;;;;;;6.05;3.33;;;19.40;99.90;;;;;;5013110;28;20504;-51
2023/06/29 04:06:22;;;;;;;6.88;3.28;;;19.40;99.90;;;;;;5013018;28;20040;-53
2023/06/29 04:08:47;;;;;;;7.20;3.42;;;19.40;99.90;;;;;;5012798;28;20088;-53
2023/06/29 04:11:13;;;;;;;6.40;3.33;;;19.40;99.90;;;;;;5012910;28;20026;-55
2023/06/29 04:13:39;;;;;;;12.07;3.45;;;19.40;99.90;;;;;;5012284;28;20056;-52
2023/06/29 04:16:04;;;;;;;6.75;3.83;;;19.40;99.90;;;;;;5012794;28;20065;-51
2023/06/29 04:18:30;;;;;;;8.90;3.95;;;19.40;99.90;;;;;;5012574;28;20026;-54
2023/06/29 04:20:56;;;;;;;8.18;3.85;;;19.40;99.90;;;;;;5012624;28;20501;-52
2023/06/29 04:23:21;;;;;;;7.05;3.60;;;19.40;99.90;;;;;;5012164;28;20041;-54
2023/06/29 04:25:47;;;;;;;7.10;3.38;;;19.50;99.90;;;;;;5012735;28;20038;-53
2023/06/29 04:28:13;;;;;;;7.65;3.80;;;19.50;99.90;;;;;;5012417;28;20056;-54
2023/06/29 04:30:45;;;;;;;7.60;3.17;;;19.50;99.90;;;;;;5012657;28;20037;-54
2023/06/29 04:33:10;;;;;;;7.10;3.47;;;19.50;99.90;;;;;;5012103;28;20033;-55
2023/06/29 04:35:40;;;;;;;4.38;3.00;;;19.40;99.90;;;;;;5012377;28;20034;-52
2023/06/29 04:38:07;;;;;;;6.68;3.13;;;19.40;99.90;;;;;;5012668;28;20534;-53
2023/06/29 04:40:33;;;;;;;7.40;3.50;;;19.40;99.90;;;;;;5012385;28;20120;-50
2023/06/29 04:42:59;;;;;;;9.13;3.92;;;19.40;99.90;;;;;;5011734;28;20108;-53
2023/06/29 04:45:24;;;;;;;7.90;3.83;;;19.40;99.90;;;;;;5012184;28;20029;-54
2023/06/29 04:47:50;;;;;;;8.90;3.67;;;19.40;99.90;;;;;;5012231;28;20036;-51
2023/06/29 04:50:26;;;;;;;6.20;3.90;;;19.40;99.90;;;;;;5011960;28;20117;-52
2023/06/29 04:52:55;;;;;;;9.73;3.58;;;19.40;99.90;;;;;;4994097;28;20459;-54
2023/06/29 04:55:22;;;;;;;8.60;4.07;;;19.50;99.90;;;;;;5011762;28;20028;-54
2023/06/29 04:57:48;;;;;;;6.70;3.20;;;19.50;99.90;;;;;;5012194;28;20383;-50
2023/06/29 05:00:14;;;;;;;7.72;3.50;;;19.50;99.90;;;;;;5011906;28;20029;-54
2023/06/29 05:02:40;;;;;;;6.93;3.63;;;19.50;99.90;;;;;;5011176;28;20039;-50
2023/06/29 05:05:06;;;;;;;6.18;3.53;;;19.50;99.90;;;;;;5011874;28;20034;-53
2023/06/29 05:07:32;;;;;;;8.27;3.55;;;19.50;99.90;;;;;;4994673;28;20410;-52
2023/06/29 05:09:58;;;;;;;6.95;3.83;;;19.40;99.90;;;;;;5011696;28;20037;-53
2023/06/29 05:12:24;;;;;;;8.55;3.65;;;19.50;99.90;;;;;;5011365;28;20026;-55
2023/06/29 05:14:50;;;;;;;6.80;3.38;;;19.60;99.90;;;;;;5011702;28;20033;-55
2023/06/29 05:17:17;;;;;;;9.02;3.85;;;19.50;99.90;;;;;;5011525;28;20092;-54
2023/06/29 05:19:43;;;;;;;9.35;4.00;;;19.60;99.90;;;;;;5011709;28;20037;-55
2023/06/29 05:22:09;;;;;;;8.13;3.40;;;19.60;99.90;;;;;;5011250;28;20048;-55
2023/06/29 05:24:37;;;;;;;7.97;3.38;;;19.60;99.90;;;;;;5011733;28;20049;-54
2023/06/29 05:27:03;;;;;;;8.25;3.88;;;19.60;99.90;;;;;;5011561;28;20038;-52
2023/06/29 05:29:28;;;;;;;8.18;4.07;;;19.70;99.90;;;;;;5011928;28;20064;-54
2023/06/29 05:31:54;;;;;;;7.85;4.30;;;19.70;99.90;;;;;;5011287;28;20037;-54
2023/06/29 05:34:20;;;;;;;11.10;4.35;;;19.70;99.90;;;;;;5011282;28;20029;-53
2023/06/29 05:36:45;;;;;;;9.75;4.50;;;19.70;99.90;;;;;;5011549;28;20022;-54
2023/06/29 05:39:11;;;;;;;11.88;4.95;;;19.80;99.90;;;;;;5011596;28;20543;-53
2023/06/29 05:41:38;;;;;;;11.25;4.30;;;19.80;99.90;;;;;;5011247;28;20041;-53
2023/06/29 05:44:04;;;;;;;12.35;4.60;;;19.90;99.90;;;;;;5011324;28;20410;-54
2023/06/29 05:46:30;;;;;;;10.15;4.13;;;19.90;99.90;;;;;;5011550;28;20030;-51
2023/06/29 05:48:55;;;;;;;10.73;4.43;;;19.90;99.90;;;;;;5011385;28;20445;-55
2023/06/29 05:51:21;;;;;;;8.90;3.85;;;19.90;99.90;;;;;;5011185;28;20540;-54
2023/06/29 05:53:46;;;;;;;8.95;4.32;;;20.00;99.90;;;;;;5010940;28;20033;-53
2023/06/29 05:56:12;;;;;;;8.63;4.88;;;20.00;99.90;;;;;;5011169;28;20286;-54
2023/06/29 05:58:38;;;;;;;8.60;4.35;;;20.00;99.90;;;;;;5011174;28;20159;-54
2023/06/29 06:01:04;;;;;;;15.48;8.48;;;20.10;99.90;;;;;;5010984;28;20034;-51
2023/06/29 06:03:29;;;;;;;12.65;6.20;;;20.10;99.90;;;;;;5010623;28;20026;-52
2023/06/29 06:05:55;;;;;;;10.73;4.43;;;20.10;99.90;;;;;;5011135;28;20442;-52
2023/06/29 06:08:20;;;;;;;11.20;5.65;;;20.10;99.90;;;;;;5010954;28;20041;-52
2023/06/29 06:10:46;;;;;;;9.07;4.13;;;20.10;99.90;;;;;;5010899;28;20513;-52
2023/06/29 06:13:12;;;;;;;11.50;6.55;;;20.20;99.90;;;;;;5010445;28;20026;-50
2023/06/29 06:15:39;;;;;;;10.93;4.72;;;20.30;99.90;;;;;;5010823;28;20406;-50
2023/06/29 06:18:06;;;;;;;11.05;5.30;;;20.20;99.90;;;;;;5011131;28;20025;-50
2023/06/29 06:20:31;;;;;;;12.15;4.80;;;20.20;99.90;;;;;;5010948;28;20114;-52
2023/06/29 06:22:57;;;;;;;8.75;4.20;;;20.30;99.90;;;;;;5010466;28;20033;-49
2023/06/29 06:25:23;;;;;;;15.48;8.10;;;20.30;99.90;;;;;;5010882;28;20041;-54
2023/06/29 06:27:48;;;;;;;10.80;4.90;;;20.30;99.90;;;;;;5011006;28;20038;-52
2023/06/29 06:30:14;;;;;;;13.43;5.57;;;20.40;99.90;;;;;;5011100;28;20153;-51
2023/06/29 06:32:41;;;;;;;13.15;7.50;;;20.40;99.90;;;;;;5010594;28;20041;-52
2023/06/29 06:35:10;;;;;;;7.03;4.43;;;20.40;99.90;;;;;;5010946;28;20034;-51
2023/06/29 06:37:36;;;;;;;15.02;6.72;;;20.40;99.90;;;;;;5011535;28;20548;-49
2023/06/29 06:40:07;;;;;;;9.52;5.15;;;20.50;99.90;;;;;;5012211;28;20037;-49
2023/06/29 06:42:34;;;;;;;9.68;4.47;;;20.60;99.90;;;;;;5011142;28;20030;-51
2023/06/29 06:45:05;;;;;;;8.55;3.97;;;20.60;99.90;;;;;;5012322;28;20028;-51
2023/06/29 06:47:32;;;;;;;10.52;5.75;;;20.70;99.90;;;;;;5012049;28;20084;-53
2023/06/29 06:49:58;;;;;;;13.75;5.65;;;20.60;99.90;;;;;;5010397;28;20073;-52
2023/06/29 06:52:24;;;;;;;9.93;5.45;;;20.60;99.90;;;;;;5010009;28;20116;-51
2023/06/29 06:54:51;;;;;;;11.60;5.40;;;20.60;99.90;;;;;;5010539;28;20289;-51
2023/06/29 06:57:17;;;;;;;13.15;6.95;;;20.60;99.90;;;;;;5010368;28;20034;-51
2023/06/29 06:59:43;;;;;;;13.85;7.85;;;20.60;99.90;;;;;;5010627;28;20038;-49
2023/06/29 07:02:09;;;;;;;13.90;7.72;;;20.70;99.90;;;;;;4992424;28;20466;-49
2023/06/29 07:04:34;;;;;;;9.95;5.30;;;20.70;99.90;;;;;;5010293;28;20030;-50
2023/06/29 07:07:00;;;;;;;10.73;6.38;;;20.70;99.90;;;;;;5010397;28;20410;-52
2023/06/29 07:09:25;;;;;;;10.48;5.22;;;20.80;99.90;;;;;;5010176;28;20030;-49
2023/06/29 07:11:51;;;;;;;16.77;7.25;;;20.80;99.90;;;;;;5010665;28;20109;-50
2023/06/29 07:14:17;;;;;;;12.00;5.32;;;20.80;99.90;;;;;;5010553;28;20486;-52
2023/06/29 07:16:42;;;;;;;9.68;4.25;;;20.80;99.90;;;;;;5010517;28;20171;-52
2023/06/29 07:19:12;;;;;;;9.48;5.25;;;20.90;99.90;;;;;;5011051;28;20037;-54
2023/06/29 07:21:38;;;;;;;15.02;7.85;;;21.00;99.90;;;;;;5013705;28;20117;-52
2023/06/29 07:24:03;;;;;;;7.55;4.32;;;21.00;99.90;;;;;;5013566;28;20141;-48
2023/06/29 07:26:29;;;;;;;8.85;4.32;;;21.00;99.90;;;;;;5014078;28;20033;-50
2023/06/29 07:28:55;;;;;;;11.40;6.18;;;21.00;99.90;;;;;;5013741;28;20034;-50
2023/06/29 07:31:25;;;;;;;15.88;5.22;;;21.00;99.90;;;;;;5013611;28;20037;-49
2023/06/29 07:33:53;;;;;;;18.15;8.85;;;21.00;99.90;;;;;;5013373;28;20103;-50
2023/06/29 07:36:20;;;;;;;9.82;5.00;;;20.90;99.90;;;;;;5013685;28;20026;-50
2023/06/29 07:38:46;;;;;;;12.45;4.75;;;20.90;99.90;;;;;;5013457;28;20113;-50
2023/06/29 07:41:12;;;;;;;11.48;4.55;;;21.00;99.90;;;;;;4995649;28;20037;-50
2023/06/29 07:43:39;;;;;;;11.40;7.75;;;21.00;99.90;;;;;;4995359;28;20042;-50
2023/06/29 07:46:05;;;;;;;10.18;4.90;;;21.10;99.90;;;;;;5013395;28;20025;-50
2023/06/29 07:48:31;;;;;;;9.57;4.47;;;21.20;99.90;;;;;;5013334;28;20541;-49
2023/06/29 07:50:56;;;;;;;8.57;4.85;;;21.20;99.90;;;;;;5013368;28;20073;-51
2023/06/29 07:53:22;;;;;;;8.70;5.03;;;21.30;99.90;;;;;;5012685;28;20022;-49
2023/06/29 07:55:48;;;;;;;13.73;6.70;;;21.30;99.90;;;;;;5013210;28;20042;-52
2023/06/29 07:58:13;;;;;;;10.20;4.85;;;21.40;99.90;;;;;;5013269;28;20036;-51
2023/06/29 08:00:39;;;;;;;8.27;4.72;;;21.40;99.90;;;;;;4979586;28;20036;-51
2023/06/29 08:03:05;;;;;;;12.52;4.93;;;21.40;99.90;;;;;;5012714;28;20422;-50
2023/06/29 08:05:30;;;;;;;12.40;5.95;;;21.50;99.90;;;;;;5013130;28;20040;-52
2023/06/29 08:07:56;;;;;;;12.43;6.57;;;21.50;99.90;;;;;;5013051;28;20053;-50
2023/06/29 08:10:22;;;;;;;10.70;5.50;;;21.50;99.90;;;;;;5013071;28;20041;-49
2023/06/29 08:12:49;;;;;;;10.82;5.50;;;21.40;99.90;;;;;;4995248;28;20034;-51
2023/06/29 08:15:15;;;;;;;13.68;6.43;;;21.40;99.90;;;;;;5013222;28;20132;-53
2023/06/29 08:17:41;;;;;;;11.70;5.65;;;21.50;99.90;;;;;;5012963;28;20041;-50
2023/06/29 08:20:11;;;;;;;11.82;5.30;;;21.40;99.90;;;;;;5012823;28;20109;-49
2023/06/29 08:22:40;;;;;;;10.00;4.82;;;21.40;99.90;;;;;;5012160;28;20033;-49
2023/06/29 08:25:06;;;;;;;;;;;21.40;99.90;;;;;;5013258;28;20034;-51
2023/06/29 08:27:32;;;;;;;9.00;4.53;;;21.30;99.90;;;;;;5012738;28;19920;-53
2023/06/29 08:29:57;;;;;;;11.32;4.95;;;21.30;99.90;;;;;;5012352;28;20541;-50
2023/06/29 08:32:23;;;;;;;13.20;6.30;;;21.40;99.90;;;;;;5011561;28;20057;-49
2023/06/29 08:34:48;;;;;;;16.52;7.85;;;21.30;99.90;;;;;;5012479;28;20500;-51
2023/06/29 08:37:14;;;;;;;9.02;4.88;;;21.30;99.90;;;;;;5012282;28;20053;-52
2023/06/29 08:39:40;;;;;;;17.30;8.20;;;21.30;99.90;;;;;;5012385;28;20034;-52
2023/06/29 08:42:06;;;;;;;14.38;7.13;;;21.30;99.90;;;;;;5011963;28;20397;-49
2023/06/29 08:44:33;;;;;;;10.07;5.47;;;21.30;99.90;;;;;;5012293;28;20030;-51
2023/06/29 08:47:01;;;;;;;13.77;5.70;;;21.40;99.90;;;;;;5012369;28;20413;-51
2023/06/29 08:49:27;;;;;;;12.40;6.50;;;21.50;99.90;;;;;;5012627;28;20030;-50
2023/06/29 08:51:58;;;;;;;12.43;5.10;;;21.50;99.90;;;;;;5011799;28;20026;-52
2023/06/29 08:54:26;;;;;;;9.30;4.88;;;21.50;99.90;;;;;;5012001;28;20067;-53
2023/06/29 08:56:52;;;;;;;10.55;5.32;;;21.50;99.90;;;;;;5012048;28;20049;-53
2023/06/29 08:59:18;;;;;;;13.27;4.53;;;21.50;99.90;;;;;;5012018;28;20029;-49
2023/06/29 09:01:45;;;;;;;10.48;4.53;;;21.50;99.90;;;;;;5011904;28;20406;-49
2023/06/29 09:04:11;;;;;;;11.77;5.30;;;21.50;99.90;;;;;;5011576;28;20036;-49
2023/06/29 09:06:37;;;;;;;13.85;5.45;;;21.60;99.90;;;;;;5011816;28;20042;-52
2023/06/29 09:09:03;;;;;;;11.90;6.13;;;21.70;99.90;;;;;;5011364;28;20056;-50
2023/06/29 09:11:33;;;;;;;11.10;5.38;;;21.80;99.90;;;;;;5011467;28;20037;-50
2023/06/29 09:14:04;;;;;;;8.20;4.57;;;21.80;99.90;;;;;;5011441;28;20397;-51
2023/06/29 09:16:30;;;;;;;10.32;5.03;;;21.90;99.90;;;;;;4994255;28;20040;-52
2023/06/29 09:18:57;;;;;;;11.63;5.75;;;22.00;99.90;;;;;;5011565;28;20033;-50
2023/06/29 09:21:23;;;;;;;10.13;5.30;;;22.00;99.90;;;;;;4993840;28;20029;-53
2023/06/29 09:23:50;;;;;;;13.43;5.97;;;22.00;99.90;;;;;;5011345;28;20036;-54
2023/06/29 09:26:17;;;;;;;10.93;5.45;;;22.10;99.90;;;;;;4994114;28;20033;-52
2023/06/29 09:28:46;;;;;;;9.95;5.28;;;22.20;99.90;;;;;;4994070;28;20030;-52
2023/06/29 09:31:12;;;;;;;14.43;6.18;;;22.10;99.90;;;;;;5011459;28;20482;-53
2023/06/29 09:33:38;;;;;;;11.90;5.85;;;22.20;99.90;;;;;;5010882;28;20053;-50
2023/06/29 09:36:07;;;;;;;12.02;6.63;;;22.20;99.90;;;;;;5011292;28;20026;-51
2023/06/29 09:38:33;;;;;;;13.73;6.47;;;22.40;99.90;;;;;;4993894;28;20445;-53
2023/06/29 09:40:59;;;;;;;15.43;6.93;;;22.60;99.90;;;;;;5011274;28;20026;-50
2023/06/29 09:43:29;;;;;;;11.93;6.05;;;22.80;99.90;;;;;;5010602;28;20042;-53
2023/06/29 09:46:02;;;;;;;15.48;6.82;;;22.90;99.90;;;;;;5011488;28;20040;-51
2023/06/29 09:48:28;;;;;;;12.95;6.82;;;23.10;99.90;;;;;;5010821;28;20022;-53
2023/06/29 09:50:54;;;;;;;11.82;6.13;;;23.20;99.90;;;;;;5010727;28;20045;-52
2023/06/29 09:53:32;;;;;;;16.10;6.70;;;23.30;99.90;;;;;;5010660;28;20038;-54
2023/06/29 09:55:59;;;;;;;;;;;23.30;99.90;;;;;;5011663;28;20487;-54
2023/06/29 09:58:28;;;;;;;14.80;6.95;;;23.50;99.90;;;;;;5010977;28;19920;-53
2023/06/29 10:00:58;;;;;;;14.43;6.78;;;23.50;99.90;;;;;;5010949;28;20356;-53
2023/06/29 10:03:27;;;;;;;15.82;7.28;;;23.70;99.90;;;;;;5010688;28;20026;-50
2023/06/29 10:05:59;;;;;;;18.40;8.05;;;23.90;99.80;;;;;;5010764;28;20041;-50
2023/06/29 10:08:28;;;;;;;16.13;7.70;;;24.10;99.40;;;;;;5011051;28;20412;-52
2023/06/29 10:10:59;;;;;;;15.10;8.18;;;24.10;99.70;;;;;;5010769;28;20368;-50
2023/06/29 10:13:24;;;;;;;16.77;8.35;;;24.30;99.20;;;;;;5010537;28;20034;-51
2023/06/29 10:15:51;;;;;;;20.77;8.70;;;24.40;99.00;;;;;;5010618;28;20052;-52
2023/06/29 10:18:26;;;;;;;16.88;7.85;;;24.50;98.70;;;;;;5010810;28;20119;-53
2023/06/29 10:20:52;;;;;;;14.85;8.10;;;24.70;98.90;;;;;;5010831;28;20061;-55
2023/06/29 10:23:20;;;;;;;17.52;8.45;;;24.70;99.20;;;;;;5010463;28;20048;-54
2023/06/29 10:25:51;;;;;;;17.48;8.63;;;24.70;98.30;;;;;;5010767;28;20036;-52
2023/06/29 10:28:18;;;;;;;18.20;8.85;;;24.80;98.40;;;;;;5010756;28;20026;-54
2023/06/29 10:30:48;;;;;;;17.75;9.40;;;24.70;98.50;;;;;;5010653;28;20455;-54
2023/06/29 10:33:20;;;;;;;19.65;9.30;;;24.60;98.50;;;;;;5010274;28;20040;-53
2023/06/29 10:35:57;;;;;;;17.35;8.10;;;24.60;98.20;;;;;;5010445;28;20034;-52
2023/06/29 10:38:34;;;;;;;15.73;7.95;;;24.50;97.90;;;;;;5010732;28;20498;-54
2023/06/29 10:41:00;;;;;;;15.80;8.13;;;24.40;98.30;;;;;;5011043;28;20437;-54
2023/06/29 10:43:46;;;;;;;16.35;8.30;;;24.20;98.50;;;;;;5010450;28;20034;-54
2023/06/29 10:46:14;;;;;;;15.10;8.45;;;24.10;98.80;;;;;;5010668;28;20044;-54
2023/06/29 10:48:39;;;;;;;16.88;8.38;;;24.00;99.20;;;;;;5010627;28;20125;-53
2023/06/29 10:51:07;;;;;;;17.85;8.13;;;23.80;99.40;;;;;;5011004;28;20109;-50
2023/06/29 10:53:34;;;;;;;17.00;8.20;;;23.60;99.70;;;;;;5010652;28;20034;-53
2023/06/29 10:56:00;;;;;;;16.65;8.70;;;23.50;99.90;;;;;;5014512;28;20479;-54
2023/06/29 10:58:36;;;;;;;16.25;8.73;;;23.30;99.90;;;;;;5014600;28;20108;-52
2023/06/29 11:01:02;;;;;;;18.40;8.95;;;23.20;99.90;;;;;;5014393;28;20064;-53
2023/06/29 11:03:28;;;;;;;15.63;8.13;;;23.10;99.90;;;;;;5013889;28;20053;-53
2023/06/29 11:05:55;;;;;;;19.52;9.75;;;23.10;99.90;;;;;;5014156;28;20034;-53
2023/06/29 11:08:22;;;;;;;16.80;8.95;;;23.10;99.90;;;;;;5014459;28;20036;-54
2023/06/29 11:10:48;;;;;;;17.80;9.43;;;23.10;99.90;;;;;;5014041;28;20372;-52
2023/06/29 11:13:14;;;;;;;19.25;9.13;;;23.00;99.90;;;;;;5013625;28;20485;-49
2023/06/29 11:15:39;;;;;;;17.75;9.15;;;23.00;99.90;;;;;;5013842;28;20029;-50
2023/06/29 11:18:07;;;;;;;21.00;9.52;;;22.90;99.90;;;;;;5013837;28;20033;-50
2023/06/29 11:20:35;;;;;;;22.67;9.73;;;22.90;99.90;;;;;;5013660;28;20452;-52
2023/06/29 11:23:01;;;;;;;20.20;10.25;;;22.90;99.90;;;;;;5013721;28;20048;-51
2023/06/29 11:25:29;;;;;;;19.98;10.07;;;22.90;99.90;;;;;;5013870;28;20506;-54
2023/06/29 11:27:54;;;;;;;18.25;10.00;;;22.90;99.90;;;;;;5014114;28;20037;-53
2023/06/29 11:30:21;;;;;;;18.70;9.32;;;22.90;99.90;;;;;;5013823;28;20034;-54
2023/06/29 11:32:50;;;;;;;18.70;9.63;;;23.00;99.90;;;;;;5013303;28;20033;-53
2023/06/29 11:35:17;;;;;;;19.65;9.18;;;22.90;99.90;;;;;;5014245;28;20026;-54
2023/06/29 11:37:43;;;;;;;20.90;9.50;;;23.10;99.90;;;;;;5013876;28;20080;-55
2023/06/29 11:40:29;;;;;;;19.70;9.15;;;23.00;99.90;;;;;;5013781;28;20030;-53
2023/06/29 11:42:55;;;;;;;18.33;8.75;;;23.10;99.90;;;;;;5012980;28;20050;-53
2023/06/29 11:45:21;;;;;;;12.77;7.75;;;23.10;99.90;;;;;;5013157;28;20501;-54
2023/06/29 11:47:53;;;;;;;16.77;8.75;;;23.00;99.90;;;;;;5013005;28;20486;-53
2023/06/29 11:50:18;;;;;;;17.52;8.80;;;23.10;99.90;;;;;;5013254;28;20038;-52
2023/06/29 11:52:45;;;;;;;19.63;9.10;;;23.10;99.90;;;;;;5013172;28;20030;-51
2023/06/29 11:55:15;;;;;;;19.80;10.13;;;23.20;99.90;;;;;;5012916;28;20053;-54
2023/06/29 11:57:47;;;;;;;19.90;10.27;;;23.20;99.90;;;;;;5012967;28;20037;-52
2023/06/29 12:00:16;;;;;;;20.20;10.52;;;23.20;99.90;;;;;;5013052;28;20544;-50
2023/06/29 12:02:42;;;;;;;20.38;9.88;;;23.40;99.90;;;;;;5012386;28;20454;-50
2023/06/29 12:05:08;;;;;;;16.20;8.13;;;23.40;99.90;;;;;;5012637;28;20486;-54
2023/06/29 12:07:41;;;;;;;18.80;9.80;;;23.50;99.90;;;;;;5013194;28;20116;-55
2023/06/29 12:10:09;;;;;;;18.35;9.50;;;23.70;99.90;;;;;;5012831;28;20053;-54
2023/06/29 12:12:46;;;;;;;22.05;9.35;;;23.90;99.90;;;;;;5012488;28;20113;-54
2023/06/29 12:15:19;;;;;;;17.50;8.88;;;24.00;98.50;;;;;;5012812;28;20065;-53
2023/06/29 12:17:47;;;;;;;14.98;8.50;;;24.00;98.10;;;;;;5012424;28;20037;-54
2023/06/29 12:20:16;;;;;;;15.52;7.72;;;24.10;98.00;;;;;;5012492;28;20104;-51
2023/06/29 12:22:43;;;;;;;15.23;8.20;;;24.30;98.10;;;;;;5012700;28;20386;-55
2023/06/29 12:25:11;;;;;;;18.55;8.82;;;24.40;97.60;;;;;;5012632;28;20103;-53
2023/06/29 12:27:37;;;;;;;16.13;8.23;;;24.40;97.10;;;;;;5012382;28;20029;-51
2023/06/29 12:30:04;;;;;;;15.45;7.88;;;24.40;96.80;;;;;;5012447;28;20042;-54
2023/06/29 12:32:29;;;;;;;16.77;8.63;;;24.50;97.10;;;;;;5011957;28;20439;-54
2023/06/29 12:34:55;;;;;;;16.17;7.50;;;24.50;96.70;;;;;;5012435;28;20116;-53
2023/06/29 12:37:21;;;;;;;16.58;7.65;;;24.60;97.00;;;;;;5012335;28;20079;-54
2023/06/29 12:39:48;;;;;;;16.65;7.50;;;24.50;96.90;;;;;;5012418;28;20034;-55
2023/06/29 12:42:14;;;;;;;15.02;8.38;;;24.50;96.80;;;;;;5011893;28;20030;-49